»·PEaware :: N614FT KNYL-KOLS

N614FT :: KNYL-KOLS

FLIGHT INFORMATION

Flight Status: Arrived
Operator: Privately registered:
United States
More flights under this callsign
Pilot: Carlos A. (16805)
Aircraft: PIPER PA-31/31P NAVAJO CHIEFTAIN
(PA31)
More flights by this aircraft type
Origin: KNYL Yuma MCAS/Yuma Intl
United States
Destination: KOLS Nogales Intl
United States
More flights between these airports :: More routes between these airports
Route: MOHAK5 MOHAK V66 TUS V395 ARVEY
File this flight plan on PilotEdge
Remarks: Arizona Alphabet Challenge
Altitude:
(Current/Filed)
5,000ft
Speed:
(Current/Filed)
180kts
Departed: 14-Sep-23 08:01 PM
Arrived: 14-Sep-23 09:20 PM
Distance/Time
Traveled:
206nm/1:19
Distance/Time
To Go:
Arrived

Flight Plot

Page will automatically refresh every two minutes.

Flight plan parsing failed; only flown route is shown


Map Options




Map Legend


Flown Route
Filed Route
Departure Airport
Arrival Airport
Navaid (VOR, NDB)
Fix

Horizontal Profiles

Position Reports

Time Latitude Longitude Heading Altitude Ground
Speed
14-Sep-23 19:20 32.658878 -114.610167 357 220ft 0kts
14-Sep-23 19:21 32.658878 -114.610167 357 220ft 0kts
14-Sep-23 19:22 32.658878 -114.610167 357 220ft 0kts
14-Sep-23 19:23 32.658878 -114.610167 357 220ft 0kts
14-Sep-23 19:24 32.658878 -114.610167 357 220ft 0kts
14-Sep-23 19:25 32.658878 -114.610167 357 220ft 0kts
14-Sep-23 19:26 32.658879 -114.610167 357 220ft 0kts
14-Sep-23 19:27 32.658881 -114.610167 357 220ft 0kts
14-Sep-23 19:28 32.658882 -114.610167 357 220ft 0kts
14-Sep-23 19:29 32.658884 -114.610167 357 220ft 0kts
14-Sep-23 19:30 32.658885 -114.610167 357 220ft 0kts
14-Sep-23 19:31 32.658887 -114.610167 357 220ft 0kts
14-Sep-23 19:32 32.658888 -114.610167 357 220ft 0kts
14-Sep-23 19:33 32.658890 -114.610167 357 220ft 0kts
14-Sep-23 19:34 32.658892 -114.610167 357 220ft 0kts
14-Sep-23 19:35 32.658893 -114.610167 357 220ft 0kts
14-Sep-23 19:36 32.658895 -114.610168 357 220ft 0kts
14-Sep-23 19:37 32.658896 -114.610168 357 220ft 0kts
14-Sep-23 19:38 32.658898 -114.610168 357 220ft 0kts
14-Sep-23 19:39 32.658899 -114.610168 357 220ft 0kts
14-Sep-23 19:40 32.658900 -114.610168 357 220ft 0kts
14-Sep-23 19:41 32.658902 -114.610168 357 220ft 0kts
14-Sep-23 19:41 32.658903 -114.610168 357 220ft 0kts
14-Sep-23 19:42 32.658950 -114.610169 0 220ft 0kts
14-Sep-23 19:44 32.659155 -114.610268 83 220ft 0kts
14-Sep-23 19:45 32.659156 -114.610257 83 220ft 0kts
14-Sep-23 19:46 32.659157 -114.610248 83 220ft 0kts
14-Sep-23 19:46 32.659157 -114.610246 83 220ft 0kts
14-Sep-23 19:47 32.659157 -114.610244 83 220ft 0kts
14-Sep-23 19:48 32.659158 -114.610242 83 220ft 0kts
14-Sep-23 19:50 32.659158 -114.610240 83 220ft 0kts
14-Sep-23 19:50 32.659158 -114.610238 83 220ft 0kts
14-Sep-23 19:51 32.659378 -114.607161 50 220ft 18kts
14-Sep-23 19:52 32.660042 -114.604580 85 220ft 0kts
14-Sep-23 19:53 32.659154 -114.603909 179 220ft 16kts
14-Sep-23 19:54 32.653667 -114.603799 178 220ft 19kts
14-Sep-23 19:55 32.652296 -114.603769 4 220ft 0kts
14-Sep-23 19:56 32.652298 -114.603768 4 220ft 0kts
14-Sep-23 19:57 32.652300 -114.603768 4 220ft 0kts
14-Sep-23 19:58 32.652302 -114.603768 4 220ft 0kts
14-Sep-23 19:59 32.652306 -114.603768 4 220ft 0kts
14-Sep-23 20:00 32.674205 -114.602548 355 907ft 105kts
14-Sep-23 20:01 32.703763 -114.603179 358 2054ft 115kts
14-Sep-23 20:02 32.741086 -114.602710 359 2776ft 138kts
14-Sep-23 20:03 32.772147 -114.577723 83 3732ft 158kts
14-Sep-23 20:04 32.777161 -114.530486 85 4843ft 160kts
14-Sep-23 20:05 32.776702 -114.474660 112 5255ft 186kts
14-Sep-23 20:06 32.772773 -114.411500 91 5136ft 196kts
14-Sep-23 20:07 32.771384 -114.346090 86 4943ft 205kts
14-Sep-23 20:08 32.772767 -114.277870 86 5006ft 215kts
14-Sep-23 20:09 32.778517 -114.207671 81 4958ft 215kts
14-Sep-23 20:10 32.780934 -114.138907 91 5136ft 205kts
14-Sep-23 20:11 32.781328 -114.069678 90 5002ft 208kts
14-Sep-23 20:12 32.777659 -114.001809 87 4976ft 221kts
14-Sep-23 20:13 32.785356 -113.931437 79 5025ft 212kts
14-Sep-23 20:14 32.800711 -113.864413 77 4949ft 203kts
14-Sep-23 20:15 32.811549 -113.800193 79 5470ft 197kts
14-Sep-23 20:16 32.817691 -113.735569 86 6036ft 194kts
14-Sep-23 20:17 32.816092 -113.667759 88 6094ft 199kts
14-Sep-23 20:18 32.823574 -113.605829 74 7058ft 179kts
14-Sep-23 20:19 32.834656 -113.544121 82 7311ft 210kts
14-Sep-23 20:20 32.846097 -113.474351 76 7034ft 220kts
14-Sep-23 20:21 32.862862 -113.406684 74 6941ft 212kts
14-Sep-23 20:22 32.870987 -113.338976 87 7086ft 205kts
14-Sep-23 20:23 32.877051 -113.270312 83 7082ft 213kts
14-Sep-23 20:24 32.886020 -113.200601 78 7072ft 217kts
14-Sep-23 20:25 32.894149 -113.130865 85 7012ft 208kts
14-Sep-23 20:26 32.902211 -113.062600 77 7214ft 211kts
14-Sep-23 20:27 32.913122 -112.992114 80 7045ft 214kts
14-Sep-23 20:28 32.924376 -112.922414 80 7029ft 213kts
14-Sep-23 20:29 32.936924 -112.853290 79 6943ft 205kts
14-Sep-23 20:30 32.947688 -112.785753 80 7073ft 213kts
14-Sep-23 20:31 32.947856 -112.715641 95 7265ft 209kts
14-Sep-23 20:32 32.938897 -112.646954 111 7356ft 214kts
14-Sep-23 20:33 32.913710 -112.580736 118 7030ft 218kts
14-Sep-23 20:34 32.885907 -112.516736 116 6925ft 215kts
14-Sep-23 20:35 32.856702 -112.456807 123 7096ft 216kts
14-Sep-23 20:36 32.823592 -112.398498 125 7081ft 207kts
14-Sep-23 20:37 32.794449 -112.337002 117 7034ft 213kts
14-Sep-23 20:38 32.768501 -112.273801 115 6983ft 213kts
14-Sep-23 20:39 32.740147 -112.211696 117 6859ft 217kts
14-Sep-23 20:40 32.713990 -112.150235 117 7304ft 205kts
14-Sep-23 20:41 32.689405 -112.087913 116 7295ft 210kts
14-Sep-23 20:42 32.662450 -112.026920 122 7589ft 210kts
14-Sep-23 20:43 32.631534 -111.971698 123 8438ft 203kts
14-Sep-23 20:44 32.605033 -111.912998 114 9060ft 209kts
14-Sep-23 20:45 32.579278 -111.850011 124 9128ft 215kts
14-Sep-23 20:46 32.548040 -111.788058 119 9043ft 222kts
14-Sep-23 20:47 32.518017 -111.724470 121 8956ft 221kts
14-Sep-23 20:48 32.487627 -111.662812 122 9114ft 223kts
14-Sep-23 20:49 32.453725 -111.602493 128 8905ft 225kts
14-Sep-23 20:50 32.417591 -111.544457 129 8892ft 215kts
14-Sep-23 20:51 32.381239 -111.490549 123 9172ft 212kts
14-Sep-23 20:52 32.355047 -111.426904 118 9247ft 210kts
14-Sep-23 20:53 32.326475 -111.365559 118 9289ft 211kts
14-Sep-23 20:54 32.298635 -111.302314 123 9086ft 220kts
14-Sep-23 20:55 32.265441 -111.244765 120 9162ft 225kts
14-Sep-23 20:56 32.236851 -111.180452 120 9110ft 217kts
14-Sep-23 20:57 32.211107 -111.116570 114 9225ft 215kts
14-Sep-23 20:58 32.178443 -111.057147 125 9115ft 223kts
14-Sep-23 20:59 32.143037 -110.999396 132 9310ft 211kts
14-Sep-23 21:00 32.098533 -110.953653 149 9281ft 216kts
14-Sep-23 21:01 32.050115 -110.916110 176 9735ft 201kts
14-Sep-23 21:02 31.997491 -110.934289 198 10323ft 190kts
14-Sep-23 21:03 31.941989 -110.944746 186 10234ft 211kts
14-Sep-23 21:04 31.883027 -110.948979 188 10001ft 202kts
14-Sep-23 21:05 31.836487 -110.954032 183 10180ft 155kts
14-Sep-23 21:06 31.794972 -110.959792 190 10333ft 151kts
14-Sep-23 21:07 31.753752 -110.967336 189 10424ft 151kts
14-Sep-23 21:08 31.711181 -110.975553 187 10214ft 155kts
14-Sep-23 21:09 31.668658 -110.980028 190 10036ft 152kts
14-Sep-23 21:10 31.628691 -110.990665 189 9951ft 146kts
14-Sep-23 21:11 31.589994 -110.968690 146 9562ft 157kts
14-Sep-23 21:12 31.558894 -110.933131 132 9075ft 158kts
14-Sep-23 21:13 31.514890 -110.919726 168 7863ft 157kts
14-Sep-23 21:14 31.478134 -110.895577 146 6718ft 150kts
14-Sep-23 21:15 31.444901 -110.869571 154 5250ft 123kts
14-Sep-23 21:16 31.417378 -110.884629 213 4599ft 120kts
14-Sep-23 21:17 31.391060 -110.894703 127 4434ft 109kts
14-Sep-23 21:18 31.399586 -110.871070 50 4389ft 94kts
14-Sep-23 21:19 31.415317 -110.850751 41 3959ft 33kts
14-Sep-23 21:20 31.416164 -110.850746 316 3959ft 0kts
14-Sep-23 21:21 31.416165 -110.850747 316 3959ft 0kts
14-Sep-23 21:22 31.416166 -110.850748 316 3959ft 0kts
14-Sep-23 21:23 31.415802 -110.852124 220 3959ft 18kts
14-Sep-23 21:24 31.411241 -110.857413 141 3959ft 10kts
14-Sep-23 21:25 31.410885 -110.856278 53 3959ft 17kts
14-Sep-23 21:26 31.428166 -110.842153 339 4611ft 106kts
14-Sep-23 21:27 31.411679 -110.857922 162 5703ft 99kts
14-Sep-23 21:28 31.407940 -110.883567 348 6547ft 148kts
14-Sep-23 21:29 31.439617 -110.873751 7 8027ft 112kts
14-Sep-23 21:30 31.463473 -110.890424 275 8658ft 118kts
14-Sep-23 21:31 31.442745 -110.900332 134 9143ft 112kts
14-Sep-23 21:32 31.426958 -110.867492 124 9241ft 119kts
14-Sep-23 21:33 31.407625 -110.836275 137 10097ft 129kts

Navigation Log

Ident Type
Flight plan parsing failed, navigation log unavailable